Time;durP1;ratioP1;P1;durP2;ratioP2;P2;SDS_P1;SDS_P2;PMS_P1;PMS_P2;Temp;Humidity;BMP_temperature;BMP_pressure;BME280_temperature;BME280_humidity;BME280_pressure;Samples;Min_cycle;Max_cycle;Signal;HPM_P1;HPM_P2
2021/12/07 00:07:17;;;;;;;6.05;3.30;;;3.60;96.60;;;;;;4933207;29;20107;-81
2021/12/07 00:09:49;;;;;;;6.53;3.22;;;3.70;96.60;;;;;;4936350;29;20052;-84
2021/12/07 00:12:17;;;;;;;5.40;3.20;;;3.70;96.60;;;;;;4934977;29;20127;-83
2021/12/07 00:14:44;;;;;;;6.75;3.50;;;3.70;96.70;;;;;;4936696;29;20083;-79
2021/12/07 00:17:13;;;;;;;6.55;3.33;;;3.60;96.70;;;;;;4936394;29;20059;-81
2021/12/07 00:19:41;;;;;;;6.45;3.30;;;3.70;96.50;;;;;;4934089;29;20040;-80
2021/12/07 00:22:11;;;;;;;5.28;3.03;;;3.70;96.50;;;;;;4934682;29;20086;-82
2021/12/07 00:24:39;;;;;;;5.03;2.80;;;3.70;96.50;;;;;;4915785;29;20056;-78
2021/12/07 00:27:06;;;;;;;5.70;2.92;;;3.70;96.30;;;;;;4916304;29;20044;-82
2021/12/07 00:29:34;;;;;;;4.40;2.35;;;3.80;96.10;;;;;;4931776;29;20083;-79
2021/12/07 00:32:17;;;;;;;4.85;2.70;;;3.80;96.10;;;;;;4900211;29;20052;-81
2021/12/07 00:35:00;;;;;;;4.18;2.22;;;3.80;95.80;;;;;;4916302;29;20059;-82
2021/12/07 00:37:31;;;;;;;5.13;2.50;;;3.80;96.00;;;;;;4921104;29;20059;-79
2021/12/07 00:40:01;;;;;;;4.00;2.38;;;3.80;96.00;;;;;;4920323;29;20142;-80
2021/12/07 00:42:28;;;;;;;4.00;2.10;;;3.90;96.10;;;;;;4921177;29;20081;-82
2021/12/07 00:44:57;;;;;;;4.40;2.05;;;3.90;95.70;;;;;;4925501;29;20083;-79
2021/12/07 00:47:25;;;;;;;3.97;2.10;;;3.90;95.70;;;;;;4937820;29;20094;-81
2021/12/07 00:49:52;;;;;;;3.60;1.70;;;4.00;95.70;;;;;;4939621;29;20131;-82
2021/12/07 00:52:19;;;;;;;5.00;2.20;;;4.00;95.60;;;;;;4933967;29;20052;-80
2021/12/07 00:54:46;;;;;;;4.22;1.90;;;4.00;95.60;;;;;;4930238;29;20062;-80
2021/12/07 00:57:17;;;;;;;3.80;2.03;;;4.00;95.50;;;;;;4937701;29;20127;-79
2021/12/07 00:59:45;;;;;;;3.70;1.80;;;4.00;95.40;;;;;;4921578;29;20044;-81
2021/12/07 01:02:12;;;;;;;3.33;1.88;;;4.10;95.50;;;;;;4925115;29;20581;-80
2021/12/07 01:04:49;;;;;;;4.75;2.00;;;4.10;95.50;;;;;;4931494;29;20135;-79
2021/12/07 01:07:35;;;;;;;4.57;2.20;;;4.10;95.60;;;;;;4920253;29;20044;-79
2021/12/07 01:26:31;;;;;;;5.47;2.67;;;4.00;99.00;;;;;;4920378;29;20058;-80
2021/12/07 01:29:01;;;;;;;4.93;2.40;;;4.00;99.40;;;;;;4920483;29;20109;-80
2021/12/07 01:31:34;;;;;;;4.35;2.28;;;3.90;99.90;;;;;;4920497;29;20072;-82
2021/12/07 01:34:18;;;;;;;4.60;2.20;;;3.90;99.90;;;;;;4920527;29;20048;-82
2021/12/07 01:37:07;;;;;;;4.60;2.50;;;3.90;99.90;;;;;;4920491;29;20134;-83
2021/12/07 01:39:55;;;;;;;4.63;2.50;;;3.80;99.90;;;;;;4929365;29;20052;-83
2021/12/07 01:45:50;;;;;;;3.80;2.20;;;3.70;99.90;;;;;;4919640;29;20071;-81
2021/12/07 01:51:11;;;;;;;4.28;2.33;;;3.70;99.90;;;;;;4923022;29;20044;-80
2021/12/07 02:01:55;;;;;;;4.95;2.60;;;3.70;99.90;;;;;;4938136;29;20050;-81
2021/12/07 02:04:24;;;;;;;4.72;2.25;;;3.60;99.90;;;;;;4938107;29;20143;-81
2021/12/07 02:06:51;;;;;;;5.25;2.58;;;3.70;99.90;;;;;;4938378;29;20608;-79
2021/12/07 02:09:18;;;;;;;4.72;2.50;;;3.70;99.90;;;;;;4937359;29;20142;-81
2021/12/07 02:11:48;;;;;;;5.15;2.55;;;3.70;99.90;;;;;;4919322;29;20098;-80
2021/12/07 02:14:17;;;;;;;5.20;2.30;;;3.60;99.90;;;;;;4919099;29;20091;-80
2021/12/07 02:16:47;;;;;;;3.80;2.15;;;3.60;99.90;;;;;;4920891;29;20137;-81
2021/12/07 02:19:17;;;;;;;5.05;2.20;;;3.60;99.90;;;;;;4919743;29;20091;-82
2021/12/07 02:21:46;;;;;;;3.50;1.90;;;3.60;99.90;;;;;;4920320;29;20136;-81
2021/12/07 02:24:13;;;;;;;4.15;2.00;;;3.60;99.90;;;;;;4919170;29;20136;-82
2021/12/07 02:26:41;;;;;;;4.55;1.90;;;3.60;99.90;;;;;;4919000;29;20139;-81
2021/12/07 02:29:12;;;;;;;3.75;1.90;;;3.50;99.90;;;;;;4901624;29;20554;-83
2021/12/07 02:31:39;;;;;;;4.22;1.70;;;3.50;99.90;;;;;;4917587;29;20060;-83
2021/12/07 02:34:07;;;;;;;4.00;1.80;;;3.50;99.90;;;;;;4919641;29;20084;-81
2021/12/07 02:36:35;;;;;;;3.70;1.95;;;3.50;99.90;;;;;;4919127;29;20079;-79
2021/12/07 02:39:08;;;;;;;3.85;1.67;;;3.50;99.90;;;;;;4918816;29;20056;-81
2021/12/07 02:41:38;;;;;;;4.10;2.13;;;3.50;99.90;;;;;;4918545;29;20056;-80
2021/12/07 02:44:09;;;;;;;4.00;1.98;;;3.50;99.90;;;;;;4921697;29;20095;-83
2021/12/07 02:46:39;;;;;;;3.88;2.08;;;3.50;99.90;;;;;;4922841;29;20051;-81
2021/12/07 02:49:10;;;;;;;4.30;1.95;;;3.40;99.90;;;;;;4919694;29;20143;-80
2021/12/07 02:51:38;;;;;;;4.40;2.10;;;3.40;99.90;;;;;;4919378;29;20558;-80
2021/12/07 02:54:08;;;;;;;4.10;2.13;;;3.40;99.90;;;;;;4920086;29;20144;-83
2021/12/07 02:56:35;;;;;;;3.97;2.00;;;3.50;99.90;;;;;;4925187;29;20425;-82
2021/12/07 02:59:04;;;;;;;4.70;2.20;;;3.50;99.90;;;;;;4923690;29;20135;-87
2021/12/07 03:01:38;;;;;;;4.53;2.20;;;3.50;99.90;;;;;;4919801;29;20052;-83
2021/12/07 03:04:09;;;;;;;4.18;2.10;;;3.50;99.90;;;;;;4920517;29;20048;-79
2021/12/07 03:06:54;;;;;;;4.22;2.05;;;3.50;99.90;;;;;;4918518;29;20067;-80
2021/12/07 03:09:58;;;;;;;4.53;1.70;;;3.60;99.90;;;;;;4919387;29;20102;-80
2021/12/07 03:26:20;;;;;;;3.83;1.80;;;3.70;99.90;;;;;;4920815;29;20087;-80
2021/12/07 03:28:49;;;;;;;;;;;3.60;99.90;;;;;;4921118;29;20142;-79
2021/12/07 03:31:20;;;;;;;3.53;1.70;;;3.70;99.90;;;;;;4921638;29;19966;-82
2021/12/07 03:33:49;;;;;;;3.17;1.77;;;3.70;99.90;;;;;;4917024;29;20907;-79
2021/12/07 03:36:17;;;;;;;3.97;1.80;;;3.80;99.90;;;;;;4921037;29;20083;-78
2021/12/07 03:38:50;;;;;;;3.55;1.65;;;3.80;99.90;;;;;;4920617;29;20525;-79
2021/12/07 03:41:21;;;;;;;3.97;1.85;;;3.80;99.90;;;;;;4936088;29;20110;-80
2021/12/07 03:43:50;;;;;;;3.20;1.60;;;3.70;99.90;;;;;;4903994;29;20107;-78
2021/12/07 03:46:19;;;;;;;4.25;1.65;;;3.70;99.90;;;;;;4920310;29;20102;-81
2021/12/07 03:48:46;;;;;;;3.97;1.75;;;3.70;99.90;;;;;;4920417;29;20417;-81
2021/12/07 03:51:14;;;;;;;3.47;1.70;;;3.70;99.90;;;;;;4921124;29;20533;-79
2021/12/07 03:53:43;;;;;;;3.38;1.55;;;3.60;99.90;;;;;;4920705;29;20139;-80
2021/12/07 03:56:11;;;;;;;3.10;1.67;;;3.60;99.90;;;;;;4920178;29;20140;-81
2021/12/07 03:58:39;;;;;;;4.30;1.88;;;3.60;99.90;;;;;;4920369;29;20052;-81
2021/12/07 04:01:11;;;;;;;3.83;1.60;;;3.60;99.90;;;;;;4920140;29;20140;-81
2021/12/07 04:03:41;;;;;;;3.35;1.75;;;3.60;99.90;;;;;;4918795;29;20059;-81
2021/12/07 04:06:08;;;;;;;3.80;1.80;;;3.70;99.90;;;;;;4925572;29;20058;-82
2021/12/07 04:08:37;;;;;;;4.45;2.03;;;3.60;99.90;;;;;;4934561;29;20086;-81
2021/12/07 04:11:05;;;;;;;2.90;1.55;;;3.70;99.90;;;;;;4923679;29;20054;-82
2021/12/07 04:13:33;;;;;;;4.03;1.80;;;3.70;99.90;;;;;;4920051;29;20512;-80
2021/12/07 04:16:01;;;;;;;3.67;1.55;;;3.70;99.90;;;;;;4923961;29;20055;-82
2021/12/07 04:18:29;;;;;;;3.60;1.70;;;3.70;99.90;;;;;;4939081;29;20473;-79
2021/12/07 04:20:56;;;;;;;3.83;1.77;;;3.70;99.90;;;;;;4939022;29;20085;-85
2021/12/07 04:23:24;;;;;;;3.13;1.58;;;3.70;99.90;;;;;;4938462;29;20134;-82
2021/12/07 04:25:51;;;;;;;3.30;1.40;;;3.70;99.90;;;;;;4940438;29;20394;-84
2021/12/07 04:28:20;;;;;;;3.65;1.50;;;3.70;99.90;;;;;;4938708;29;20052;-81
2021/12/07 04:30:47;;;;;;;3.40;1.40;;;3.70;99.90;;;;;;4940726;29;20048;-83
2021/12/07 04:33:16;;;;;;;2.80;1.30;;;3.70;99.90;;;;;;4941811;29;20152;-76
2021/12/07 04:35:48;;;;;;;4.05;1.50;;;3.70;99.90;;;;;;4938168;29;20082;-82
2021/12/07 04:38:16;;;;;;;2.97;1.23;;;3.70;99.90;;;;;;4923481;29;20127;-80
2021/12/07 04:40:44;;;;;;;2.38;1.00;;;3.80;99.90;;;;;;4928059;29;20051;-82
2021/12/07 04:43:12;;;;;;;2.50;1.10;;;3.70;99.90;;;;;;4939796;29;20058;-82
2021/12/07 04:45:52;;;;;;;2.70;1.15;;;3.70;99.90;;;;;;4932919;29;20071;-81
2021/12/07 04:48:46;;;;;;;3.55;1.25;;;3.90;99.90;;;;;;4937606;29;20062;-77
2021/12/07 04:59:35;;;;;;;4.00;1.10;;;4.00;99.90;;;;;;4935506;29;20107;-82
2021/12/07 05:02:03;;;;;;;2.22;0.82;;;3.90;99.90;;;;;;4940396;29;20090;-85
2021/12/07 05:04:36;;;;;;;2.35;1.10;;;3.90;99.90;;;;;;4942124;29;20086;-79
2021/12/07 05:07:10;;;;;;;3.42;1.35;;;3.90;99.90;;;;;;4939361;29;20497;-79
2021/12/07 05:12:32;;;;;;;1.92;0.80;;;4.00;99.90;;;;;;4937376;29;20514;-81
2021/12/07 05:15:13;;;;;;;2.33;1.13;;;3.90;99.90;;;;;;4942351;29;20070;-79
2021/12/07 05:34:48;;;;;;;;;;;4.10;99.90;;;;;;4923190;29;20051;-80
2021/12/07 05:40:10;;;;;;;2.45;0.90;;;4.20;99.90;;;;;;4921721;29;20495;-80
2021/12/07 05:42:39;;;;;;;3.03;1.02;;;4.30;99.90;;;;;;4920126;29;20052;-82
2021/12/07 05:45:11;;;;;;;2.67;0.82;;;4.30;99.90;;;;;;4920442;29;20139;-81
2021/12/07 05:47:39;;;;;;;2.45;0.93;;;4.30;99.90;;;;;;4920744;29;20127;-80
2021/12/07 05:50:10;;;;;;;2.45;0.90;;;4.30;99.90;;;;;;4921689;29;20144;-80
2021/12/07 05:52:39;;;;;;;3.47;1.08;;;4.30;99.90;;;;;;4922623;29;20087;-80
2021/12/07 05:55:08;;;;;;;4.13;0.82;;;4.20;99.90;;;;;;4921609;29;20139;-82
2021/12/07 05:57:37;;;;;;;5.10;1.17;;;4.20;99.90;;;;;;4923264;29;20112;-80
2021/12/07 06:00:10;;;;;;;2.47;1.15;;;4.20;99.90;;;;;;4922490;29;20052;-79
2021/12/07 06:02:37;;;;;;;2.90;0.90;;;4.10;99.90;;;;;;4922157;29;20123;-80
2021/12/07 06:05:10;;;;;;;3.15;0.90;;;4.00;99.90;;;;;;4921435;29;20131;-79
2021/12/07 06:07:44;;;;;;;2.47;1.05;;;4.10;99.90;;;;;;4923141;29;20123;-82
2021/12/07 06:10:13;;;;;;;3.77;0.90;;;4.00;99.90;;;;;;4923371;29;20044;-81
2021/12/07 06:12:41;;;;;;;2.53;0.98;;;3.90;99.90;;;;;;4922490;29;20325;-82
2021/12/07 06:15:11;;;;;;;3.08;1.00;;;4.00;99.90;;;;;;4922814;29;20052;-83
2021/12/07 06:17:38;;;;;;;3.78;1.20;;;3.90;99.90;;;;;;4922923;29;20102;-83
2021/12/07 06:20:14;;;;;;;2.90;1.00;;;3.80;99.90;;;;;;4923500;29;20135;-83
2021/12/07 06:22:43;;;;;;;4.00;1.02;;;3.90;99.90;;;;;;4923763;29;20059;-81
2021/12/07 06:25:12;;;;;;;2.40;1.00;;;3.90;99.90;;;;;;4924792;29;20072;-84
2021/12/07 06:27:40;;;;;;;3.50;0.95;;;3.90;99.90;;;;;;4924160;29;20056;-89
2021/12/07 06:30:11;;;;;;;5.55;1.25;;;3.90;99.90;;;;;;4925012;29;20071;-84
2021/12/07 06:32:39;;;;;;;4.05;1.23;;;3.80;99.90;;;;;;4922056;29;20139;-86
2021/12/07 06:35:09;;;;;;;3.28;1.10;;;3.80;99.90;;;;;;4922656;29;20146;-84
2021/12/07 06:37:37;;;;;;;4.25;1.30;;;3.70;99.90;;;;;;4921549;29;20076;-83
2021/12/07 06:40:12;;;;;;;3.80;1.20;;;3.80;99.90;;;;;;4921116;29;20052;-82
2021/12/07 06:42:39;;;;;;;3.47;1.15;;;3.80;99.90;;;;;;4920526;29;20052;-82
2021/12/07 06:45:08;;;;;;;4.28;1.33;;;3.80;99.90;;;;;;4920800;29;20121;-81
2021/12/07 06:47:35;;;;;;;3.40;1.20;;;3.80;99.90;;;;;;4920624;29;20460;-82
2021/12/07 06:50:03;;;;;;;3.42;1.02;;;3.70;99.90;;;;;;4920116;29;20721;-82
2021/12/07 06:52:31;;;;;;;3.78;1.40;;;4.00;99.90;;;;;;4919630;29;20127;-86
2021/12/07 06:54:59;;;;;;;7.28;1.58;;;3.80;99.90;;;;;;4922357;29;20371;-83
2021/12/07 06:57:28;;;;;;;3.22;1.10;;;3.70;99.90;;;;;;4923029;29;20080;-81
2021/12/07 06:59:56;;;;;;;3.40;1.10;;;3.60;99.90;;;;;;4922467;29;20086;-83
2021/12/07 07:02:23;;;;;;;2.63;1.10;;;3.70;99.90;;;;;;4923713;29;20123;-85
2021/12/07 07:04:50;;;;;;;4.32;1.10;;;3.40;99.90;;;;;;4925524;29;20463;-84
2021/12/07 07:07:18;;;;;;;4.18;1.20;;;3.40;99.90;;;;;;4923714;29;20422;-85
2021/12/07 07:09:49;;;;;;;4.32;1.17;;;3.50;99.90;;;;;;4924818;29;20048;-85
2021/12/07 07:12:17;;;;;;;4.65;1.30;;;3.50;99.90;;;;;;4921868;29;20451;-82
2021/12/07 07:14:46;;;;;;;3.70;1.30;;;3.30;99.90;;;;;;4921043;29;20147;-80
2021/12/07 07:17:14;;;;;;;4.22;1.33;;;3.50;99.90;;;;;;4919579;29;20143;-81
2021/12/07 07:19:41;;;;;;;3.55;1.08;;;3.50;99.90;;;;;;4919493;29;20139;-82
2021/12/07 07:22:08;;;;;;;2.85;1.08;;;3.40;99.90;;;;;;4920764;29;20130;-81
2021/12/07 07:24:36;;;;;;;4.40;1.30;;;3.30;99.90;;;;;;4920114;29;20116;-80
2021/12/07 07:27:04;;;;;;;3.70;1.10;;;3.40;99.90;;;;;;4921061;29;20100;-82
2021/12/07 07:29:31;;;;;;;3.05;1.27;;;3.40;99.90;;;;;;4919629;29;20131;-81
2021/12/07 07:32:05;;;;;;;2.92;0.93;;;3.40;99.90;;;;;;4919259;29;20052;-84
2021/12/07 07:34:32;;;;;;;3.30;1.33;;;3.40;99.90;;;;;;4919819;29;20143;-81
2021/12/07 07:37:01;;;;;;;3.08;0.98;;;3.40;99.90;;;;;;4920124;29;20147;-80
2021/12/07 07:39:32;;;;;;;3.13;1.00;;;3.50;99.90;;;;;;4919761;29;20155;-79
2021/12/07 07:42:00;;;;;;;3.70;0.95;;;3.50;99.90;;;;;;4919381;29;20052;-81
2021/12/07 07:44:28;;;;;;;2.83;1.10;;;3.50;99.90;;;;;;4920427;29;20052;-80
2021/12/07 07:46:57;;;;;;;4.78;1.15;;;3.50;99.90;;;;;;4919627;29;20050;-81
2021/12/07 07:49:28;;;;;;;3.28;1.08;;;3.50;99.90;;;;;;4919765;29;20094;-80
2021/12/07 07:51:55;;;;;;;4.13;1.08;;;3.70;99.90;;;;;;4903229;29;20052;-83
2021/12/07 07:54:23;;;;;;;2.35;0.90;;;3.60;99.90;;;;;;4919647;29;20088;-82
2021/12/07 07:56:50;;;;;;;3.60;1.10;;;3.60;99.90;;;;;;4919720;29;20063;-82
2021/12/07 07:59:17;;;;;;;2.53;0.90;;;3.60;99.90;;;;;;4920063;29;20155;-85
2021/12/07 08:01:45;;;;;;;2.72;1.00;;;3.70;99.90;;;;;;4918407;29;20052;-81
2021/12/07 08:04:13;;;;;;;4.07;1.15;;;3.50;99.90;;;;;;4919390;29;20135;-81
2021/12/07 08:06:41;;;;;;;2.75;1.20;;;2.30;99.90;;;;;;4918331;29;20455;-83
2021/12/07 08:09:08;;;;;;;3.50;1.00;;;3.00;99.90;;;;;;4918999;29;20146;-80
2021/12/07 08:11:37;;;;;;;3.97;1.10;;;3.70;99.90;;;;;;4918622;29;20462;-80
2021/12/07 08:14:04;;;;;;;3.70;1.27;;;3.70;99.90;;;;;;4918643;29;20450;-80
2021/12/07 08:16:31;;;;;;;2.67;1.13;;;3.70;99.90;;;;;;4919472;29;20142;-82
2021/12/07 08:18:59;;;;;;;4.55;1.30;;;3.70;99.90;;;;;;4917919;29;20473;-81
2021/12/07 08:21:26;;;;;;;2.58;1.05;;;3.80;99.90;;;;;;4918409;29;20052;-82
2021/12/07 08:23:54;;;;;;;4.43;1.42;;;3.80;99.90;;;;;;4917689;29;20147;-80
2021/12/07 08:26:24;;;;;;;3.20;1.20;;;3.90;99.90;;;;;;4919449;29;20087;-82
2021/12/07 08:28:53;;;;;;;4.45;1.38;;;3.80;99.90;;;;;;4918691;29;20127;-83
2021/12/07 08:31:21;;;;;;;5.28;1.55;;;3.90;99.90;;;;;;4918437;29;20120;-80
2021/12/07 08:33:48;;;;;;;3.42;1.25;;;4.00;99.90;;;;;;4918302;29;20135;-79
2021/12/07 08:36:15;;;;;;;3.95;1.38;;;3.90;99.90;;;;;;4918490;29;20052;-81
2021/12/07 08:38:46;;;;;;;3.45;1.30;;;3.90;99.90;;;;;;4919097;29;20139;-79
2021/12/07 08:41:15;;;;;;;4.38;1.45;;;4.00;99.90;;;;;;4918986;29;20053;-80
2021/12/07 08:43:43;;;;;;;3.75;1.30;;;4.00;99.90;;;;;;4918300;29;20562;-80
2021/12/07 08:46:14;;;;;;;4.22;1.40;;;4.00;99.90;;;;;;4919297;29;20127;-83
2021/12/07 08:48:43;;;;;;;5.85;1.50;;;4.00;99.90;;;;;;4919684;29;20097;-83
2021/12/07 08:51:12;;;;;;;5.13;1.48;;;4.10;99.90;;;;;;4916184;29;20490;-81
2021/12/07 08:53:46;;;;;;;6.00;1.35;;;4.00;99.90;;;;;;4916058;29;20131;-85
2021/12/07 09:01:42;;;;;;;4.47;1.30;;;4.10;99.90;;;;;;4921567;29;20063;-81
2021/12/07 09:04:17;;;;;;;2.88;1.20;;;4.20;99.90;;;;;;4920738;29;20131;-83
2021/12/07 09:06:45;;;;;;;4.53;1.50;;;4.20;99.90;;;;;;4922033;29;20073;-82
2021/12/07 09:09:13;;;;;;;3.25;1.40;;;4.10;99.90;;;;;;4919750;29;20147;-80
2021/12/07 09:11:42;;;;;;;4.07;1.20;;;4.10;99.90;;;;;;4921048;29;20052;-81
2021/12/07 09:14:14;;;;;;;3.75;1.30;;;4.20;99.90;;;;;;4920169;29;20585;-82
2021/12/07 09:16:41;;;;;;;3.65;1.45;;;4.10;99.90;;;;;;4920470;29;20135;-84
2021/12/07 09:19:08;;;;;;;3.20;1.27;;;4.20;99.90;;;;;;4920226;29;20478;-83
2021/12/07 09:21:36;;;;;;;5.65;1.48;;;4.30;99.90;;;;;;4920074;29;20140;-80
2021/12/07 09:24:05;;;;;;;4.03;1.63;;;4.20;99.90;;;;;;4919786;29;20123;-82
2021/12/07 09:26:33;;;;;;;3.92;1.10;;;4.30;99.90;;;;;;4920033;29;20493;-78
2021/12/07 09:29:01;;;;;;;4.35;1.48;;;4.30;99.90;;;;;;4918620;29;20459;-82
2021/12/07 09:31:29;;;;;;;3.72;1.40;;;4.40;99.90;;;;;;4911044;29;20104;-79
2021/12/07 09:33:56;;;;;;;3.83;1.40;;;4.40;99.90;;;;;;4900672;29;20076;-82
2021/12/07 09:36:25;;;;;;;4.75;1.38;;;4.50;99.90;;;;;;4900253;29;20491;-81
2021/12/07 09:38:53;;;;;;;4.65;1.38;;;4.50;99.90;;;;;;4900608;29;20126;-83
2021/12/07 09:41:21;;;;;;;4.35;1.40;;;4.50;99.90;;;;;;4900165;29;20128;-81
2021/12/07 09:43:48;;;;;;;3.50;1.33;;;4.60;99.90;;;;;;4918373;29;20578;-80
2021/12/07 09:46:17;;;;;;;4.35;1.30;;;4.60;99.90;;;;;;4920660;29;20476;-83
2021/12/07 09:48:46;;;;;;;5.22;1.50;;;4.70;99.90;;;;;;4919651;29;20107;-84
2021/12/07 09:51:19;;;;;;;4.93;1.50;;;4.80;99.90;;;;;;4919866;29;20136;-84
2021/12/07 09:53:48;;;;;;;3.38;1.30;;;4.80;99.90;;;;;;4918830;29;20140;-83
2021/12/07 09:56:18;;;;;;;5.78;1.70;;;4.80;99.90;;;;;;4918607;29;20135;-85
2021/12/07 09:58:46;;;;;;;4.53;1.40;;;4.80;99.90;;;;;;4919290;29;20540;-82
2021/12/07 10:01:13;;;;;;;4.15;1.23;;;4.90;99.90;;;;;;4918454;29;20049;-82
2021/12/07 10:03:42;;;;;;;5.57;1.52;;;4.80;99.90;;;;;;4918763;29;20147;-81
2021/12/07 10:06:10;;;;;;;3.78;1.60;;;4.80;99.90;;;;;;4917954;29;20107;-80
2021/12/07 10:08:38;;;;;;;5.35;1.38;;;4.90;99.90;;;;;;4917849;29;20123;-78
2021/12/07 10:11:10;;;;;;;3.70;1.50;;;5.00;99.90;;;;;;4918512;29;20066;-80
2021/12/07 10:13:41;;;;;;;5.63;1.35;;;4.90;99.90;;;;;;4918156;29;20131;-79
2021/12/07 10:16:10;;;;;;;6.20;1.45;;;4.90;99.90;;;;;;4917787;29;20063;-79
2021/12/07 10:18:42;;;;;;;5.10;1.40;;;4.90;99.90;;;;;;4918055;29;20474;-84
2021/12/07 10:21:18;;;;;;;7.35;1.42;;;4.90;99.90;;;;;;4917538;29;20516;-80
2021/12/07 10:23:49;;;;;;;5.88;1.40;;;5.00;99.90;;;;;;4917959;29;20080;-80
2021/12/07 10:26:19;;;;;;;4.55;1.38;;;5.10;99.90;;;;;;4917553;29;20068;-80
2021/12/07 10:28:49;;;;;;;5.88;1.20;;;5.10;99.90;;;;;;4917393;29;20079;-80
2021/12/07 10:31:29;;;;;;;4.53;1.25;;;5.20;99.90;;;;;;4917345;29;20052;-82
2021/12/07 10:34:00;;;;;;;5.00;1.48;;;5.20;99.90;;;;;;4917289;29;20139;-81
2021/12/07 10:36:31;;;;;;;5.40;1.30;;;5.20;99.90;;;;;;4917142;29;20143;-84
2021/12/07 10:39:08;;;;;;;5.72;1.30;;;5.20;99.90;;;;;;4916715;29;20471;-82
2021/12/07 10:41:41;;;;;;;6.88;1.65;;;5.20;99.90;;;;;;4915891;29;20142;-81
2021/12/07 10:44:11;;;;;;;5.63;1.42;;;5.20;99.90;;;;;;4898693;29;20151;-84
2021/12/07 10:46:51;;;;;;;8.00;1.38;;;5.20;99.90;;;;;;4898214;29;20479;-81
2021/12/07 10:49:35;;;;;;;4.88;1.23;;;5.20;99.90;;;;;;4898528;29;20059;-83
2021/12/07 10:52:21;;;;;;;5.88;1.52;;;5.20;99.90;;;;;;4898456;29;20513;-81
2021/12/07 10:55:08;;;;;;;5.72;1.15;;;5.30;99.90;;;;;;4898269;29;20132;-80
2021/12/07 10:57:42;;;;;;;6.03;1.35;;;5.40;99.90;;;;;;4898277;29;20152;-79
2021/12/07 11:00:20;;;;;;;5.40;1.40;;;5.40;99.90;;;;;;4915119;29;20056;-81
2021/12/07 11:02:51;;;;;;;5.07;1.42;;;5.40;99.90;;;;;;4898043;29;20056;-82
2021/12/07 11:05:24;;;;;;;7.15;1.77;;;5.50;99.90;;;;;;4910495;29;20470;-78
2021/12/07 11:07:52;;;;;;;4.97;1.40;;;5.50;99.90;;;;;;4916539;29;20193;-79
2021/12/07 11:10:28;;;;;;;5.30;1.40;;;5.60;99.90;;;;;;4916583;29;20044;-80
2021/12/07 11:13:01;;;;;;;3.75;1.17;;;5.70;99.90;;;;;;4916549;29;20112;-79
2021/12/07 11:15:31;;;;;;;5.35;1.45;;;5.80;99.90;;;;;;4916868;29;20055;-82
2021/12/07 11:18:02;;;;;;;4.80;1.63;;;5.70;99.90;;;;;;4916839;29;20052;-80
2021/12/07 11:20:32;;;;;;;4.93;1.70;;;5.80;99.90;;;;;;4915794;29;20143;-82
2021/12/07 11:23:04;;;;;;;6.10;1.73;;;5.80;99.90;;;;;;4916606;29;20155;-82
2021/12/07 11:29:39;;;;;;;6.68;1.35;;;5.80;99.90;;;;;;4916263;29;20476;-83
2021/12/07 11:31:33;;;;;;;7.50;1.40;;;5.90;99.90;;;;;;4916472;29;20421;-80
2021/12/07 11:34:08;;;;;;;5.60;1.30;;;6.00;99.90;;;;;;4916280;29;20055;-80
2021/12/07 11:36:40;;;;;;;5.70;1.40;;;6.00;99.90;;;;;;4917736;29;20569;-78
2021/12/07 11:39:25;;;;;;;4.15;1.25;;;6.10;99.90;;;;;;4918507;29;20054;-78
2021/12/07 11:41:59;;;;;;;5.43;1.10;;;6.10;99.90;;;;;;4919129;29;20100;-80
2021/12/07 11:44:26;;;;;;;3.58;1.10;;;6.00;99.90;;;;;;4921107;29;20123;-80
2021/12/07 11:46:55;;;;;;;3.63;1.10;;;6.00;99.90;;;;;;4921475;29;20075;-82
2021/12/07 11:49:26;;;;;;;3.63;1.20;;;5.90;99.90;;;;;;4918498;29;20148;-78
2021/12/07 11:51:57;;;;;;;5.57;1.63;;;5.90;99.90;;;;;;4916887;29;20139;-78
2021/12/07 11:54:28;;;;;;;4.50;1.40;;;5.80;99.90;;;;;;4916428;29;20139;-78
2021/12/07 11:56:56;;;;;;;5.35;1.05;;;5.80;99.90;;;;;;4916429;29;20103;-76
2021/12/07 11:59:23;;;;;;;7.65;1.50;;;5.70;99.90;;;;;;4916293;29;20553;-81
2021/12/07 12:01:52;;;;;;;8.52;1.80;;;5.70;99.90;;;;;;4914854;29;20083;-82
2021/12/07 12:04:21;;;;;;;4.80;1.30;;;5.70;99.90;;;;;;4913098;29;20062;-77
2021/12/07 12:06:51;;;;;;;3.63;1.00;;;5.70;99.90;;;;;;4913095;29;20086;-79
2021/12/07 12:09:20;;;;;;;5.35;1.10;;;5.70;99.90;;;;;;4913415;29;20147;-78
2021/12/07 12:12:00;;;;;;;6.30;1.42;;;5.80;99.90;;;;;;4912746;29;20052;-78
2021/12/07 12:14:46;;;;;;;5.20;1.20;;;5.80;99.90;;;;;;4913195;29;20044;-79
2021/12/07 12:17:19;;;;;;;5.30;1.25;;;5.90;99.90;;;;;;4913380;29;20491;-80
2021/12/07 12:20:11;;;;;;;6.85;1.50;;;6.00;99.90;;;;;;4913793;29;20573;-77
2021/12/07 12:22:44;;;;;;;4.72;1.40;;;6.00;99.90;;;;;;4913707;29;20132;-77
2021/12/07 12:25:16;;;;;;;5.55;1.75;;;6.00;99.90;;;;;;4913736;29;20093;-82
2021/12/07 12:27:47;;;;;;;6.05;1.10;;;6.10;99.90;;;;;;4912816;29;20055;-77
2021/12/07 12:30:22;;;;;;;4.38;1.00;;;6.00;99.90;;;;;;4913292;29;20075;-76
2021/12/07 12:32:54;;;;;;;;;;;6.00;99.90;;;;;;4916407;29;20082;-81
2021/12/07 12:35:31;;;;;;;7.68;1.17;;;5.90;99.90;;;;;;4916658;29;19927;-76
2021/12/07 12:37:58;;;;;;;5.05;1.20;;;6.00;99.90;;;;;;4916962;29;20171;-78
2021/12/07 12:40:31;;;;;;;4.25;1.20;;;6.00;99.90;;;;;;4915952;29;20055;-77
2021/12/07 12:43:02;;;;;;;4.07;1.05;;;6.00;99.40;;;;;;4916582;29;20082;-78
2021/12/07 12:45:35;;;;;;;4.45;1.00;;;6.20;99.90;;;;;;4916984;29;20139;-78
2021/12/07 12:48:05;;;;;;;5.28;1.02;;;6.60;99.50;;;;;;4916576;29;20186;-80
2021/12/07 12:50:36;;;;;;;4.20;1.10;;;7.00;99.50;;;;;;4916723;29;20095;-80
2021/12/07 12:53:07;;;;;;;5.40;1.00;;;7.50;98.70;;;;;;4915984;29;20134;-77
2021/12/07 12:55:43;;;;;;;4.95;1.02;;;7.80;97.10;;;;;;4916612;29;20094;-80
2021/12/07 12:58:20;;;;;;;3.63;0.95;;;7.90;96.30;;;;;;4916078;29;20577;-79
2021/12/07 13:01:15;;;;;;;5.93;1.10;;;8.30;95.50;;;;;;4916277;29;20067;-78
2021/12/07 13:04:04;;;;;;;4.65;1.20;;;10.70;80.90;;;;;;4916554;29;20108;-79
2021/12/07 13:07:05;;;;;;;3.53;1.00;;;11.40;76.00;;;;;;4916003;29;20592;-78
2021/12/07 13:09:42;;;;;;;3.33;1.00;;;14.00;74.60;;;;;;4916102;29;20052;-81
2021/12/07 13:12:16;;;;;;;3.60;1.00;;;15.70;57.90;;;;;;4916266;29;20423;-77
2021/12/07 13:15:02;;;;;;;4.93;1.37;;;16.20;50.80;;;;;;4916030;29;20055;-78
2021/12/07 13:17:38;;;;;;;3.22;1.00;;;15.40;51.10;;;;;;4916548;29;20419;-79
2021/12/07 13:20:26;;;;;;;5.10;1.10;;;14.70;50.80;;;;;;4915759;29;20100;-79
2021/12/07 13:23:06;;;;;;;2.88;1.02;;;14.40;57.50;;;;;;4922963;29;20177;-77
2021/12/07 13:25:38;;;;;;;4.07;1.00;;;15.10;51.20;;;;;;4919411;29;20071;-77
2021/12/07 13:28:15;;;;;;;3.42;0.80;;;15.30;49.40;;;;;;4919844;29;20058;-80
2021/12/07 13:31:17;;;;;;;4.05;1.08;;;15.20;49.90;;;;;;4934671;29;20135;-80
2021/12/07 13:33:49;;;;;;;4.07;1.17;;;15.70;49.50;;;;;;4934474;29;20130;-79
2021/12/07 13:36:38;;;;;;;4.90;0.80;;;14.70;47.60;;;;;;4924511;29;20466;-81
2021/12/07 13:39:44;;;;;;;4.35;1.20;;;14.40;50.70;;;;;;4917134;29;20134;-79
2021/12/07 13:42:23;;;;;;;3.72;1.10;;;15.50;48.70;;;;;;4915440;29;20048;-81
2021/12/07 13:44:56;;;;;;;5.57;0.98;;;15.10;47.60;;;;;;4915134;29;20139;-78
2021/12/07 13:47:26;;;;;;;4.20;1.10;;;14.20;62.90;;;;;;4915340;29;20056;-76
2021/12/07 13:49:58;;;;;;;3.90;1.00;;;13.20;50.80;;;;;;4915777;29;20131;-76
2021/12/07 13:52:30;;;;;;;3.78;1.20;;;12.50;52.50;;;;;;4915273;29;20521;-76
2021/12/07 13:55:02;;;;;;;4.65;1.10;;;11.90;54.20;;;;;;4915595;29;20084;-77
2021/12/07 13:57:35;;;;;;;4.18;1.20;;;11.50;55.70;;;;;;4915209;29;20048;-75
2021/12/07 14:00:11;;;;;;;4.55;0.98;;;11.50;57.20;;;;;;4914944;29;20048;-78
2021/12/07 14:02:41;;;;;;;2.50;0.75;;;12.60;55.30;;;;;;4915357;29;20060;-76
2021/12/07 14:05:14;;;;;;;4.53;1.30;;;12.50;53.40;;;;;;4915098;29;20167;-79
2021/12/07 14:07:42;;;;;;;6.15;1.05;;;12.20;53.40;;;;;;4915479;29;20055;-81
2021/12/07 14:10:21;;;;;;;3.60;0.90;;;13.00;52.90;;;;;;4915491;29;20167;-78
2021/12/07 14:12:49;;;;;;;5.03;1.10;;;14.20;51.90;;;;;;4916646;29;20048;-77
2021/12/07 14:15:22;;;;;;;3.88;1.10;;;15.70;50.00;;;;;;4916438;29;20135;-76
2021/12/07 14:17:54;;;;;;;4.95;1.10;;;17.80;46.90;;;;;;4917506;29;20148;-75
2021/12/07 14:20:31;;;;;;;3.08;1.15;;;19.90;43.50;;;;;;4929540;29;20060;-78
2021/12/07 14:22:59;;;;;;;3.45;1.08;;;21.50;40.40;;;;;;4929971;29;20087;-78
2021/12/07 14:25:26;;;;;;;5.82;1.40;;;22.20;38.30;;;;;;4933585;29;20060;-81
2021/12/07 14:27:55;;;;;;;3.13;0.90;;;22.20;37.20;;;;;;4931084;29;20056;-77
2021/12/07 14:30:24;;;;;;;3.47;0.88;;;21.20;59.50;;;;;;4929060;29;20096;-76
2021/12/07 14:32:51;;;;;;;3.58;1.20;;;19.70;38.40;;;;;;4916635;29;20131;-76
2021/12/07 14:35:21;;;;;;;3.65;1.00;;;18.20;39.90;;;;;;4915800;29;20052;-80
2021/12/07 14:37:48;;;;;;;6.07;1.00;;;16.90;41.80;;;;;;4916943;29;20048;-77
2021/12/07 14:40:15;;;;;;;4.13;1.20;;;15.70;43.50;;;;;;4928332;29;20079;-79
2021/12/07 14:42:43;;;;;;;4.00;1.10;;;14.80;45.20;;;;;;4920515;29;20123;-78
2021/12/07 14:45:11;;;;;;;3.45;0.90;;;13.90;46.50;;;;;;4917965;29;20047;-76
2021/12/07 14:47:39;;;;;;;4.13;1.10;;;13.40;48.20;;;;;;4914991;29;20147;-78